sensor_id;sensor_type;location;lat;lon;timestamp;P1;durP1;ratioP1;P2;durP2;ratioP2
15363;SDS011;7781;49.690;6.472;2023-07-09T00:01:53;11.43;;;4.87;;
15363;SDS011;7781;49.690;6.472;2023-07-09T00:04:25;5.67;;;3.97;;
15363;SDS011;7781;49.690;6.472;2023-07-09T00:06:55;7.60;;;3.60;;
15363;SDS011;7781;49.690;6.472;2023-07-09T00:09:28;9.10;;;4.30;;
15363;SDS011;7781;49.690;6.472;2023-07-09T00:11:57;4.87;;;4.37;;
15363;SDS011;7781;49.690;6.472;2023-07-09T00:14:28;5.77;;;3.90;;
15363;SDS011;7781;49.690;6.472;2023-07-09T00:16:57;6.70;;;4.07;;
15363;SDS011;7781;49.690;6.472;2023-07-09T00:19:27;4.40;;;3.43;;
15363;SDS011;7781;49.690;6.472;2023-07-09T00:21:56;9.93;;;4.30;;
15363;SDS011;7781;49.690;6.472;2023-07-09T00:24:24;5.00;;;3.97;;
15363;SDS011;7781;49.690;6.472;2023-07-09T00:26:55;9.37;;;4.23;;
15363;SDS011;7781;49.690;6.472;2023-07-09T00:29:23;11.93;;;4.60;;
15363;SDS011;7781;49.690;6.472;2023-07-09T00:31:52;7.30;;;4.13;;
15363;SDS011;7781;49.690;6.472;2023-07-09T00:34:21;7.30;;;4.20;;
15363;SDS011;7781;49.690;6.472;2023-07-09T00:36:53;5.73;;;3.77;;
15363;SDS011;7781;49.690;6.472;2023-07-09T00:39:22;6.33;;;4.00;;
15363;SDS011;7781;49.690;6.472;2023-07-09T00:41:51;9.27;;;4.50;;
15363;SDS011;7781;49.690;6.472;2023-07-09T00:44:24;9.47;;;3.87;;
15363;SDS011;7781;49.690;6.472;2023-07-09T00:47:12;6.63;;;4.17;;
15363;SDS011;7781;49.690;6.472;2023-07-09T00:49:46;9.77;;;4.20;;
15363;SDS011;7781;49.690;6.472;2023-07-09T00:52:23;9.40;;;4.60;;
15363;SDS011;7781;49.690;6.472;2023-07-09T00:54:56;6.57;;;4.27;;
15363;SDS011;7781;49.690;6.472;2023-07-09T00:57:26;6.70;;;4.33;;
15363;SDS011;7781;49.690;6.472;2023-07-09T00:59:58;5.70;;;3.93;;
15363;SDS011;7781;49.690;6.472;2023-07-09T01:02:36;6.50;;;4.50;;
15363;SDS011;7781;49.690;6.472;2023-07-09T01:05:05;12.57;;;4.07;;
15363;SDS011;7781;49.690;6.472;2023-07-09T01:07:36;6.30;;;4.03;;
15363;SDS011;7781;49.690;6.472;2023-07-09T01:10:05;10.87;;;4.33;;
15363;SDS011;7781;49.690;6.472;2023-07-09T01:12:36;7.93;;;3.93;;
15363;SDS011;7781;49.690;6.472;2023-07-09T01:15:05;10.07;;;4.77;;
15363;SDS011;7781;49.690;6.472;2023-07-09T01:17:38;7.03;;;4.60;;
15363;SDS011;7781;49.690;6.472;2023-07-09T01:20:14;6.07;;;3.70;;
15363;SDS011;7781;49.690;6.472;2023-07-09T01:22:50;9.70;;;4.20;;
15363;SDS011;7781;49.690;6.472;2023-07-09T01:25:21;9.53;;;4.13;;
15363;SDS011;7781;49.690;6.472;2023-07-09T01:27:51;6.40;;;3.77;;
15363;SDS011;7781;49.690;6.472;2023-07-09T01:30:23;4.97;;;3.80;;
15363;SDS011;7781;49.690;6.472;2023-07-09T01:32:55;6.90;;;4.10;;
15363;SDS011;7781;49.690;6.472;2023-07-09T01:35:28;7.10;;;4.27;;
15363;SDS011;7781;49.690;6.472;2023-07-09T01:38:03;5.30;;;4.10;;
15363;SDS011;7781;49.690;6.472;2023-07-09T01:40:34;6.37;;;4.07;;
15363;SDS011;7781;49.690;6.472;2023-07-09T01:43:05;7.73;;;5.00;;
15363;SDS011;7781;49.690;6.472;2023-07-09T01:45:35;6.27;;;4.37;;
15363;SDS011;7781;49.690;6.472;2023-07-09T01:48:05;7.03;;;4.20;;
15363;SDS011;7781;49.690;6.472;2023-07-09T01:50:43;6.90;;;4.10;;
15363;SDS011;7781;49.690;6.472;2023-07-09T01:53:16;8.93;;;4.33;;
15363;SDS011;7781;49.690;6.472;2023-07-09T01:55:47;8.10;;;4.30;;
15363;SDS011;7781;49.690;6.472;2023-07-09T01:58:16;9.03;;;4.20;;
15363;SDS011;7781;49.690;6.472;2023-07-09T02:00:53;7.03;;;4.43;;
15363;SDS011;7781;49.690;6.472;2023-07-09T02:03:22;5.67;;;4.20;;
15363;SDS011;7781;49.690;6.472;2023-07-09T02:05:53;9.20;;;4.40;;
15363;SDS011;7781;49.690;6.472;2023-07-09T02:08:23;6.47;;;4.43;;
15363;SDS011;7781;49.690;6.472;2023-07-09T02:10:52;10.33;;;4.63;;
15363;SDS011;7781;49.690;6.472;2023-07-09T02:13:21;7.50;;;4.30;;
15363;SDS011;7781;49.690;6.472;2023-07-09T02:15:49;9.10;;;4.17;;
15363;SDS011;7781;49.690;6.472;2023-07-09T02:18:19;12.10;;;4.70;;
15363;SDS011;7781;49.690;6.472;2023-07-09T02:20:50;6.03;;;3.90;;
15363;SDS011;7781;49.690;6.472;2023-07-09T02:23:19;8.10;;;4.40;;
15363;SDS011;7781;49.690;6.472;2023-07-09T02:25:59;6.13;;;4.00;;
15363;SDS011;7781;49.690;6.472;2023-07-09T02:28:28;6.47;;;4.30;;
15363;SDS011;7781;49.690;6.472;2023-07-09T02:30:57;7.70;;;4.40;;
15363;SDS011;7781;49.690;6.472;2023-07-09T02:33:26;5.70;;;3.97;;
15363;SDS011;7781;49.690;6.472;2023-07-09T02:35:59;15.03;;;6.13;;
15363;SDS011;7781;49.690;6.472;2023-07-09T02:38:28;5.80;;;4.30;;
15363;SDS011;7781;49.690;6.472;2023-07-09T02:40:59;6.03;;;4.47;;
15363;SDS011;7781;49.690;6.472;2023-07-09T02:43:28;7.67;;;4.93;;
15363;SDS011;7781;49.690;6.472;2023-07-09T02:45:57;7.80;;;4.37;;
15363;SDS011;7781;49.690;6.472;2023-07-09T02:48:29;10.43;;;4.57;;
15363;SDS011;7781;49.690;6.472;2023-07-09T02:50:59;10.10;;;4.90;;
15363;SDS011;7781;49.690;6.472;2023-07-09T02:53:27;6.97;;;4.60;;
15363;SDS011;7781;49.690;6.472;2023-07-09T02:55:56;9.07;;;4.80;;
15363;SDS011;7781;49.690;6.472;2023-07-09T02:58:26;7.17;;;5.20;;
15363;SDS011;7781;49.690;6.472;2023-07-09T03:00:55;6.37;;;4.40;;
15363;SDS011;7781;49.690;6.472;2023-07-09T03:03:24;8.10;;;4.60;;
15363;SDS011;7781;49.690;6.472;2023-07-09T03:05:55;8.83;;;4.70;;
15363;SDS011;7781;49.690;6.472;2023-07-09T03:08:24;7.80;;;5.30;;
15363;SDS011;7781;49.690;6.472;2023-07-09T03:10:52;8.60;;;5.00;;
15363;SDS011;7781;49.690;6.472;2023-07-09T03:13:20;8.43;;;4.67;;
15363;SDS011;7781;49.690;6.472;2023-07-09T03:15:56;6.30;;;4.73;;
15363;SDS011;7781;49.690;6.472;2023-07-09T03:18:26;6.83;;;4.93;;
15363;SDS011;7781;49.690;6.472;2023-07-09T03:20:55;11.17;;;4.60;;
15363;SDS011;7781;49.690;6.472;2023-07-09T03:23:24;6.17;;;5.00;;
15363;SDS011;7781;49.690;6.472;2023-07-09T03:25:53;9.50;;;5.00;;
15363;SDS011;7781;49.690;6.472;2023-07-09T03:28:23;9.90;;;4.67;;
15363;SDS011;7781;49.690;6.472;2023-07-09T03:30:53;7.03;;;4.17;;
15363;SDS011;7781;49.690;6.472;2023-07-09T03:33:23;8.90;;;5.60;;
15363;SDS011;7781;49.690;6.472;2023-07-09T03:35:52;8.80;;;4.93;;
15363;SDS011;7781;49.690;6.472;2023-07-09T03:38:21;10.00;;;4.87;;
15363;SDS011;7781;49.690;6.472;2023-07-09T03:40:50;7.17;;;4.63;;
15363;SDS011;7781;49.690;6.472;2023-07-09T03:43:19;7.57;;;4.63;;
15363;SDS011;7781;49.690;6.472;2023-07-09T03:45:49;7.77;;;4.80;;
15363;SDS011;7781;49.690;6.472;2023-07-09T03:48:18;7.60;;;4.90;;
15363;SDS011;7781;49.690;6.472;2023-07-09T03:50:53;10.00;;;4.73;;
15363;SDS011;7781;49.690;6.472;2023-07-09T03:53:21;7.27;;;4.57;;
15363;SDS011;7781;49.690;6.472;2023-07-09T03:55:52;7.80;;;4.70;;
15363;SDS011;7781;49.690;6.472;2023-07-09T03:58:23;8.87;;;5.57;;
15363;SDS011;7781;49.690;6.472;2023-07-09T04:00:56;8.77;;;5.20;;
15363;SDS011;7781;49.690;6.472;2023-07-09T04:03:25;6.30;;;4.77;;
15363;SDS011;7781;49.690;6.472;2023-07-09T04:05:57;7.87;;;4.63;;
15363;SDS011;7781;49.690;6.472;2023-07-09T04:08:26;6.57;;;4.60;;
15363;SDS011;7781;49.690;6.472;2023-07-09T04:10:54;8.30;;;5.13;;
15363;SDS011;7781;49.690;6.472;2023-07-09T04:13:27;6.83;;;4.30;;
15363;SDS011;7781;49.690;6.472;2023-07-09T04:15:56;9.57;;;5.13;;
15363;SDS011;7781;49.690;6.472;2023-07-09T04:18:27;6.27;;;4.63;;
15363;SDS011;7781;49.690;6.472;2023-07-09T04:20:57;5.67;;;4.50;;
15363;SDS011;7781;49.690;6.472;2023-07-09T04:23:26;6.93;;;4.50;;
15363;SDS011;7781;49.690;6.472;2023-07-09T04:25:55;6.53;;;4.50;;
15363;SDS011;7781;49.690;6.472;2023-07-09T04:28:24;7.13;;;4.43;;
15363;SDS011;7781;49.690;6.472;2023-07-09T04:30:52;7.70;;;4.73;;
15363;SDS011;7781;49.690;6.472;2023-07-09T04:33:20;11.47;;;4.73;;
15363;SDS011;7781;49.690;6.472;2023-07-09T04:35:49;7.00;;;5.27;;
15363;SDS011;7781;49.690;6.472;2023-07-09T04:38:19;5.00;;;4.30;;
15363;SDS011;7781;49.690;6.472;2023-07-09T04:40:47;6.67;;;4.93;;
15363;SDS011;7781;49.690;6.472;2023-07-09T04:43:17;6.63;;;4.60;;
15363;SDS011;7781;49.690;6.472;2023-07-09T04:45:45;6.67;;;5.00;;
15363;SDS011;7781;49.690;6.472;2023-07-09T04:48:14;6.30;;;4.40;;
15363;SDS011;7781;49.690;6.472;2023-07-09T04:50:42;7.70;;;5.03;;
15363;SDS011;7781;49.690;6.472;2023-07-09T04:53:16;7.23;;;4.40;;
15363;SDS011;7781;49.690;6.472;2023-07-09T04:55:47;5.67;;;4.10;;
15363;SDS011;7781;49.690;6.472;2023-07-09T04:58:18;10.00;;;5.93;;
15363;SDS011;7781;49.690;6.472;2023-07-09T05:00:47;10.83;;;5.40;;
15363;SDS011;7781;49.690;6.472;2023-07-09T05:03:16;9.80;;;5.00;;
15363;SDS011;7781;49.690;6.472;2023-07-09T05:05:46;7.60;;;4.90;;
15363;SDS011;7781;49.690;6.472;2023-07-09T05:08:15;8.40;;;4.90;;
15363;SDS011;7781;49.690;6.472;2023-07-09T05:10:45;9.23;;;5.63;;
15363;SDS011;7781;49.690;6.472;2023-07-09T05:13:17;16.80;;;5.20;;
15363;SDS011;7781;49.690;6.472;2023-07-09T05:15:46;7.50;;;5.10;;
15363;SDS011;7781;49.690;6.472;2023-07-09T05:18:15;8.30;;;5.10;;
15363;SDS011;7781;49.690;6.472;2023-07-09T05:20:46;9.80;;;5.13;;
15363;SDS011;7781;49.690;6.472;2023-07-09T05:23:15;8.43;;;5.13;;
15363;SDS011;7781;49.690;6.472;2023-07-09T05:25:43;7.80;;;4.97;;
15363;SDS011;7781;49.690;6.472;2023-07-09T05:28:13;5.80;;;4.57;;
15363;SDS011;7781;49.690;6.472;2023-07-09T05:30:42;7.73;;;5.07;;
15363;SDS011;7781;49.690;6.472;2023-07-09T05:33:11;12.03;;;5.00;;
15363;SDS011;7781;49.690;6.472;2023-07-09T05:35:41;10.47;;;5.10;;
15363;SDS011;7781;49.690;6.472;2023-07-09T05:38:11;8.20;;;5.30;;
15363;SDS011;7781;49.690;6.472;2023-07-09T05:40:42;7.70;;;5.30;;
15363;SDS011;7781;49.690;6.472;2023-07-09T05:43:11;7.93;;;5.10;;
15363;SDS011;7781;49.690;6.472;2023-07-09T05:45:41;8.70;;;4.57;;
15363;SDS011;7781;49.690;6.472;2023-07-09T05:48:09;7.43;;;4.77;;
15363;SDS011;7781;49.690;6.472;2023-07-09T05:50:38;9.17;;;5.37;;
15363;SDS011;7781;49.690;6.472;2023-07-09T05:53:06;7.33;;;5.20;;
15363;SDS011;7781;49.690;6.472;2023-07-09T05:55:35;8.53;;;5.13;;
15363;SDS011;7781;49.690;6.472;2023-07-09T05:58:03;8.10;;;4.60;;
15363;SDS011;7781;49.690;6.472;2023-07-09T06:00:33;6.43;;;4.83;;
15363;SDS011;7781;49.690;6.472;2023-07-09T06:03:05;8.67;;;5.50;;
15363;SDS011;7781;49.690;6.472;2023-07-09T06:05:34;8.07;;;4.57;;
15363;SDS011;7781;49.690;6.472;2023-07-09T06:08:03;6.17;;;4.70;;
15363;SDS011;7781;49.690;6.472;2023-07-09T06:10:32;9.70;;;4.90;;
15363;SDS011;7781;49.690;6.472;2023-07-09T06:13:01;5.60;;;4.63;;
15363;SDS011;7781;49.690;6.472;2023-07-09T06:15:29;6.60;;;4.53;;
15363;SDS011;7781;49.690;6.472;2023-07-09T06:17:57;10.40;;;5.80;;
15363;SDS011;7781;49.690;6.472;2023-07-09T06:20:28;7.83;;;5.67;;
15363;SDS011;7781;49.690;6.472;2023-07-09T06:22:56;9.50;;;5.57;;
15363;SDS011;7781;49.690;6.472;2023-07-09T06:25:25;9.40;;;4.73;;
15363;SDS011;7781;49.690;6.472;2023-07-09T06:27:53;9.30;;;5.63;;
15363;SDS011;7781;49.690;6.472;2023-07-09T06:30:22;8.00;;;5.13;;
15363;SDS011;7781;49.690;6.472;2023-07-09T06:32:51;8.40;;;5.30;;
15363;SDS011;7781;49.690;6.472;2023-07-09T06:35:21;8.33;;;5.27;;
15363;SDS011;7781;49.690;6.472;2023-07-09T06:37:52;8.20;;;5.47;;
15363;SDS011;7781;49.690;6.472;2023-07-09T06:40:21;13.13;;;5.07;;
15363;SDS011;7781;49.690;6.472;2023-07-09T06:42:50;6.17;;;4.80;;
15363;SDS011;7781;49.690;6.472;2023-07-09T06:45:25;9.27;;;4.73;;
15363;SDS011;7781;49.690;6.472;2023-07-09T06:47:54;7.43;;;4.97;;
15363;SDS011;7781;49.690;6.472;2023-07-09T06:50:24;7.53;;;5.57;;
15363;SDS011;7781;49.690;6.472;2023-07-09T06:52:54;9.13;;;5.03;;
15363;SDS011;7781;49.690;6.472;2023-07-09T06:55:22;7.87;;;5.17;;
15363;SDS011;7781;49.690;6.472;2023-07-09T06:57:52;6.07;;;5.20;;
15363;SDS011;7781;49.690;6.472;2023-07-09T07:00:20;10.03;;;5.13;;
15363;SDS011;7781;49.690;6.472;2023-07-09T07:02:51;9.63;;;4.90;;
15363;SDS011;7781;49.690;6.472;2023-07-09T07:05:21;11.57;;;5.30;;
15363;SDS011;7781;49.690;6.472;2023-07-09T07:07:51;6.23;;;4.90;;
15363;SDS011;7781;49.690;6.472;2023-07-09T07:10:23;7.70;;;4.80;;
15363;SDS011;7781;49.690;6.472;2023-07-09T07:12:53;6.90;;;5.27;;
15363;SDS011;7781;49.690;6.472;2023-07-09T07:15:22;8.03;;;4.67;;
15363;SDS011;7781;49.690;6.472;2023-07-09T07:17:50;9.60;;;5.50;;
15363;SDS011;7781;49.690;6.472;2023-07-09T07:20:20;7.40;;;5.50;;
15363;SDS011;7781;49.690;6.472;2023-07-09T07:22:49;6.87;;;4.70;;
15363;SDS011;7781;49.690;6.472;2023-07-09T07:25:19;8.00;;;4.60;;
15363;SDS011;7781;49.690;6.472;2023-07-09T07:27:47;7.83;;;5.23;;
15363;SDS011;7781;49.690;6.472;2023-07-09T07:30:16;9.80;;;5.83;;
15363;SDS011;7781;49.690;6.472;2023-07-09T07:32:46;7.40;;;4.80;;
15363;SDS011;7781;49.690;6.472;2023-07-09T07:35:15;6.60;;;4.57;;
15363;SDS011;7781;49.690;6.472;2023-07-09T07:37:46;10.10;;;5.20;;
15363;SDS011;7781;49.690;6.472;2023-07-09T07:40:14;11.33;;;5.30;;
15363;SDS011;7781;49.690;6.472;2023-07-09T07:42:45;9.37;;;4.70;;
15363;SDS011;7781;49.690;6.472;2023-07-09T07:45:14;7.80;;;4.73;;
15363;SDS011;7781;49.690;6.472;2023-07-09T07:47:42;6.30;;;4.63;;
15363;SDS011;7781;49.690;6.472;2023-07-09T07:50:11;9.30;;;5.23;;
15363;SDS011;7781;49.690;6.472;2023-07-09T07:52:40;8.63;;;4.13;;
15363;SDS011;7781;49.690;6.472;2023-07-09T07:55:09;8.60;;;4.50;;
15363;SDS011;7781;49.690;6.472;2023-07-09T07:57:46;10.73;;;4.80;;
15363;SDS011;7781;49.690;6.472;2023-07-09T08:00:14;8.40;;;4.00;;
15363;SDS011;7781;49.690;6.472;2023-07-09T08:02:46;8.00;;;5.30;;
15363;SDS011;7781;49.690;6.472;2023-07-09T08:05:15;6.20;;;4.70;;
15363;SDS011;7781;49.690;6.472;2023-07-09T08:07:46;7.97;;;4.43;;
15363;SDS011;7781;49.690;6.472;2023-07-09T08:10:15;10.30;;;4.27;;
15363;SDS011;7781;49.690;6.472;2023-07-09T08:12:48;5.73;;;4.50;;
15363;SDS011;7781;49.690;6.472;2023-07-09T08:15:16;7.17;;;4.63;;
15363;SDS011;7781;49.690;6.472;2023-07-09T08:17:44;7.30;;;4.47;;
15363;SDS011;7781;49.690;6.472;2023-07-09T08:20:13;13.00;;;4.83;;
15363;SDS011;7781;49.690;6.472;2023-07-09T08:22:43;6.47;;;4.80;;
15363;SDS011;7781;49.690;6.472;2023-07-09T08:25:13;6.50;;;4.17;;
15363;SDS011;7781;49.690;6.472;2023-07-09T08:27:45;10.00;;;4.67;;
15363;SDS011;7781;49.690;6.472;2023-07-09T08:30:17;7.20;;;4.87;;
15363;SDS011;7781;49.690;6.472;2023-07-09T08:32:45;10.30;;;5.10;;
15363;SDS011;7781;49.690;6.472;2023-07-09T08:35:15;6.73;;;4.77;;
15363;SDS011;7781;49.690;6.472;2023-07-09T08:37:49;8.47;;;4.17;;
15363;SDS011;7781;49.690;6.472;2023-07-09T08:40:17;7.47;;;4.20;;
15363;SDS011;7781;49.690;6.472;2023-07-09T08:42:49;12.00;;;5.40;;
15363;SDS011;7781;49.690;6.472;2023-07-09T08:45:30;7.97;;;4.43;;
15363;SDS011;7781;49.690;6.472;2023-07-09T08:48:06;5.93;;;4.97;;
15363;SDS011;7781;49.690;6.472;2023-07-09T08:50:42;5.70;;;3.90;;
15363;SDS011;7781;49.690;6.472;2023-07-09T08:53:16;6.93;;;4.20;;
15363;SDS011;7781;49.690;6.472;2023-07-09T08:55:48;4.73;;;4.17;;
15363;SDS011;7781;49.690;6.472;2023-07-09T08:58:23;7.70;;;4.23;;
15363;SDS011;7781;49.690;6.472;2023-07-09T09:00:54;6.80;;;4.23;;
15363;SDS011;7781;49.690;6.472;2023-07-09T09:03:30;7.90;;;4.60;;
15363;SDS011;7781;49.690;6.472;2023-07-09T09:06:09;8.70;;;3.63;;
15363;SDS011;7781;49.690;6.472;2023-07-09T09:08:40;13.00;;;4.47;;
15363;SDS011;7781;49.690;6.472;2023-07-09T09:11:14;5.97;;;4.13;;
15363;SDS011;7781;49.690;6.472;2023-07-09T09:13:52;6.97;;;3.80;;
15363;SDS011;7781;49.690;6.472;2023-07-09T09:16:24;8.80;;;3.73;;
15363;SDS011;7781;49.690;6.472;2023-07-09T09:18:56;9.23;;;3.97;;
15363;SDS011;7781;49.690;6.472;2023-07-09T09:21:31;5.10;;;3.37;;
15363;SDS011;7781;49.690;6.472;2023-07-09T09:24:13;6.53;;;4.00;;
15363;SDS011;7781;49.690;6.472;2023-07-09T09:26:44;15.00;;;4.40;;
15363;SDS011;7781;49.690;6.472;2023-07-09T09:29:14;6.80;;;3.60;;
15363;SDS011;7781;49.690;6.472;2023-07-09T09:31:45;9.67;;;3.60;;
15363;SDS011;7781;49.690;6.472;2023-07-09T09:34:18;6.03;;;3.13;;
15363;SDS011;7781;49.690;6.472;2023-07-09T09:36:49;4.40;;;2.90;;
15363;SDS011;7781;49.690;6.472;2023-07-09T09:39:18;15.50;;;3.33;;
15363;SDS011;7781;49.690;6.472;2023-07-09T09:41:47;9.20;;;3.30;;
15363;SDS011;7781;49.690;6.472;2023-07-09T09:44:18;3.80;;;3.40;;
15363;SDS011;7781;49.690;6.472;2023-07-09T09:46:48;5.23;;;3.27;;
15363;SDS011;7781;49.690;6.472;2023-07-09T09:49:17;5.60;;;3.20;;
15363;SDS011;7781;49.690;6.472;2023-07-09T09:51:46;6.83;;;3.17;;
15363;SDS011;7781;49.690;6.472;2023-07-09T09:54:17;5.63;;;2.70;;
15363;SDS011;7781;49.690;6.472;2023-07-09T09:56:49;5.53;;;2.80;;
15363;SDS011;7781;49.690;6.472;2023-07-09T09:59:21;6.90;;;3.60;;
15363;SDS011;7781;49.690;6.472;2023-07-09T10:01:57;4.33;;;3.07;;
15363;SDS011;7781;49.690;6.472;2023-07-09T10:04:27;7.63;;;3.00;;
15363;SDS011;7781;49.690;6.472;2023-07-09T10:06:56;4.93;;;2.67;;
15363;SDS011;7781;49.690;6.472;2023-07-09T10:09:31;8.30;;;3.60;;
15363;SDS011;7781;49.690;6.472;2023-07-09T10:12:13;6.23;;;3.10;;
15363;SDS011;7781;49.690;6.472;2023-07-09T10:14:49;4.90;;;3.20;;
15363;SDS011;7781;49.690;6.472;2023-07-09T10:17:27;6.90;;;3.40;;
15363;SDS011;7781;49.690;6.472;2023-07-09T10:20:07;6.90;;;3.40;;
15363;SDS011;7781;49.690;6.472;2023-07-09T10:22:46;6.03;;;3.27;;
15363;SDS011;7781;49.690;6.472;2023-07-09T10:25:28;5.70;;;2.80;;
15363;SDS011;7781;49.690;6.472;2023-07-09T10:31:12;5.47;;;3.23;;
15363;SDS011;7781;49.690;6.472;2023-07-09T10:33:49;4.97;;;2.77;;
15363;SDS011;7781;49.690;6.472;2023-07-09T10:36:31;7.60;;;3.50;;
15363;SDS011;7781;49.690;6.472;2023-07-09T10:39:14;4.70;;;2.87;;
15363;SDS011;7781;49.690;6.472;2023-07-09T10:41:46;6.73;;;3.60;;
15363;SDS011;7781;49.690;6.472;2023-07-09T10:44:20;5.93;;;3.63;;
15363;SDS011;7781;49.690;6.472;2023-07-09T10:46:55;9.70;;;3.70;;
15363;SDS011;7781;49.690;6.472;2023-07-09T10:49:30;5.80;;;3.57;;
15363;SDS011;7781;49.690;6.472;2023-07-09T10:52:04;4.30;;;3.10;;
15363;SDS011;7781;49.690;6.472;2023-07-09T10:54:37;4.07;;;3.50;;
15363;SDS011;7781;49.690;6.472;2023-07-09T10:57:17;6.43;;;3.63;;
15363;SDS011;7781;49.690;6.472;2023-07-09T10:59:53;3.47;;;3.10;;
15363;SDS011;7781;49.690;6.472;2023-07-09T11:02:25;6.90;;;3.70;;
15363;SDS011;7781;49.690;6.472;2023-07-09T11:04:57;3.90;;;2.80;;
15363;SDS011;7781;49.690;6.472;2023-07-09T11:07:29;6.07;;;3.03;;
15363;SDS011;7781;49.690;6.472;2023-07-09T11:10:02;6.63;;;3.40;;
15363;SDS011;7781;49.690;6.472;2023-07-09T11:12:35;5.43;;;3.20;;
15363;SDS011;7781;49.690;6.472;2023-07-09T11:15:09;10.20;;;3.33;;
15363;SDS011;7781;49.690;6.472;2023-07-09T11:17:43;3.53;;;3.00;;
15363;SDS011;7781;49.690;6.472;2023-07-09T11:20:17;8.60;;;3.50;;
15363;SDS011;7781;49.690;6.472;2023-07-09T11:22:52;5.70;;;3.30;;
15363;SDS011;7781;49.690;6.472;2023-07-09T11:25:30;5.53;;;3.70;;
15363;SDS011;7781;49.690;6.472;2023-07-09T11:28:08;7.07;;;3.60;;
15363;SDS011;7781;49.690;6.472;2023-07-09T11:30:47;6.57;;;3.80;;
15363;SDS011;7781;49.690;6.472;2023-07-09T11:33:19;3.63;;;3.07;;
15363;SDS011;7781;49.690;6.472;2023-07-09T11:35:54;5.27;;;3.20;;
15363;SDS011;7781;49.690;6.472;2023-07-09T11:38:39;7.30;;;3.63;;
15363;SDS011;7781;49.690;6.472;2023-07-09T11:41:27;6.50;;;3.27;;
15363;SDS011;7781;49.690;6.472;2023-07-09T11:44:10;5.90;;;3.43;;
15363;SDS011;7781;49.690;6.472;2023-07-09T11:46:54;5.20;;;3.20;;
15363;SDS011;7781;49.690;6.472;2023-07-09T11:49:49;10.17;;;3.60;;
15363;SDS011;7781;49.690;6.472;2023-07-09T11:52:53;6.10;;;3.10;;
15363;SDS011;7781;49.690;6.472;2023-07-09T11:55:26;6.70;;;3.63;;
15363;SDS011;7781;49.690;6.472;2023-07-09T11:57:57;5.30;;;3.77;;
15363;SDS011;7781;49.690;6.472;2023-07-09T12:00:28;7.53;;;3.47;;
15363;SDS011;7781;49.690;6.472;2023-07-09T12:03:02;5.70;;;3.37;;
15363;SDS011;7781;49.690;6.472;2023-07-09T12:05:35;8.53;;;3.50;;
15363;SDS011;7781;49.690;6.472;2023-07-09T12:08:06;7.10;;;3.23;;
15363;SDS011;7781;49.690;6.472;2023-07-09T12:10:35;4.50;;;3.40;;
15363;SDS011;7781;49.690;6.472;2023-07-09T12:13:05;4.73;;;3.17;;
15363;SDS011;7781;49.690;6.472;2023-07-09T12:15:38;4.00;;;3.60;;
15363;SDS011;7781;49.690;6.472;2023-07-09T12:18:10;6.50;;;3.23;;
15363;SDS011;7781;49.690;6.472;2023-07-09T12:20:47;6.63;;;3.47;;
15363;SDS011;7781;49.690;6.472;2023-07-09T12:23:19;4.17;;;3.20;;
15363;SDS011;7781;49.690;6.472;2023-07-09T12:25:53;6.47;;;3.40;;
15363;SDS011;7781;49.690;6.472;2023-07-09T12:28:27;5.33;;;3.40;;
15363;SDS011;7781;49.690;6.472;2023-07-09T12:30:58;6.80;;;3.33;;
15363;SDS011;7781;49.690;6.472;2023-07-09T12:33:30;8.30;;;3.93;;
15363;SDS011;7781;49.690;6.472;2023-07-09T12:36:02;6.37;;;3.57;;
15363;SDS011;7781;49.690;6.472;2023-07-09T12:38:38;7.23;;;3.50;;
15363;SDS011;7781;49.690;6.472;2023-07-09T12:41:16;8.87;;;3.43;;
15363;SDS011;7781;49.690;6.472;2023-07-09T12:43:48;4.10;;;3.00;;
15363;SDS011;7781;49.690;6.472;2023-07-09T12:46:19;5.00;;;3.30;;
15363;SDS011;7781;49.690;6.472;2023-07-09T12:48:49;4.80;;;3.13;;
15363;SDS011;7781;49.690;6.472;2023-07-09T12:51:20;3.63;;;3.10;;
15363;SDS011;7781;49.690;6.472;2023-07-09T12:53:59;10.10;;;3.60;;
15363;SDS011;7781;49.690;6.472;2023-07-09T12:56:29;5.27;;;3.10;;
15363;SDS011;7781;49.690;6.472;2023-07-09T12:59:01;8.23;;;3.40;;
15363;SDS011;7781;49.690;6.472;2023-07-09T13:01:40;4.50;;;2.90;;
15363;SDS011;7781;49.690;6.472;2023-07-09T13:04:09;4.60;;;3.37;;
15363;SDS011;7781;49.690;6.472;2023-07-09T13:06:41;4.70;;;3.30;;
15363;SDS011;7781;49.690;6.472;2023-07-09T13:09:14;9.20;;;3.60;;
15363;SDS011;7781;49.690;6.472;2023-07-09T13:11:49;5.97;;;3.47;;
15363;SDS011;7781;49.690;6.472;2023-07-09T13:14:20;5.80;;;3.30;;
15363;SDS011;7781;49.690;6.472;2023-07-09T13:16:50;7.03;;;3.70;;
15363;SDS011;7781;49.690;6.472;2023-07-09T13:19:18;9.17;;;3.50;;
15363;SDS011;7781;49.690;6.472;2023-07-09T13:21:49;7.40;;;3.97;;
15363;SDS011;7781;49.690;6.472;2023-07-09T13:24:22;4.40;;;3.00;;
15363;SDS011;7781;49.690;6.472;2023-07-09T13:26:51;5.47;;;3.43;;
15363;SDS011;7781;49.690;6.472;2023-07-09T13:29:20;11.13;;;3.50;;
15363;SDS011;7781;49.690;6.472;2023-07-09T13:31:53;11.80;;;3.10;;
15363;SDS011;7781;49.690;6.472;2023-07-09T13:34:27;6.70;;;3.30;;
15363;SDS011;7781;49.690;6.472;2023-07-09T13:37:01;6.00;;;3.93;;
15363;SDS011;7781;49.690;6.472;2023-07-09T13:39:32;11.63;;;4.03;;
15363;SDS011;7781;49.690;6.472;2023-07-09T13:42:01;6.90;;;3.60;;
15363;SDS011;7781;49.690;6.472;2023-07-09T13:44:38;6.73;;;3.57;;
15363;SDS011;7781;49.690;6.472;2023-07-09T13:47:08;10.10;;;3.80;;
15363;SDS011;7781;49.690;6.472;2023-07-09T13:49:41;9.73;;;3.47;;
15363;SDS011;7781;49.690;6.472;2023-07-09T13:52:16;8.70;;;4.70;;
15363;SDS011;7781;49.690;6.472;2023-07-09T13:54:48;10.50;;;3.47;;
15363;SDS011;7781;49.690;6.472;2023-07-09T13:57:17;12.20;;;4.10;;
15363;SDS011;7781;49.690;6.472;2023-07-09T13:59:48;10.80;;;4.40;;
15363;SDS011;7781;49.690;6.472;2023-07-09T14:02:20;12.90;;;4.60;;
15363;SDS011;7781;49.690;6.472;2023-07-09T14:04:51;8.83;;;3.97;;
15363;SDS011;7781;49.690;6.472;2023-07-09T14:07:27;8.37;;;4.00;;
15363;SDS011;7781;49.690;6.472;2023-07-09T14:09:58;6.60;;;4.00;;
15363;SDS011;7781;49.690;6.472;2023-07-09T14:12:27;5.00;;;3.50;;
15363;SDS011;7781;49.690;6.472;2023-07-09T14:15:00;7.73;;;3.30;;
15363;SDS011;7781;49.690;6.472;2023-07-09T14:17:30;10.47;;;3.57;;
15363;SDS011;7781;49.690;6.472;2023-07-09T14:20:00;5.33;;;3.40;;
15363;SDS011;7781;49.690;6.472;2023-07-09T14:22:32;5.83;;;3.90;;
15363;SDS011;7781;49.690;6.472;2023-07-09T14:25:04;10.87;;;4.27;;
15363;SDS011;7781;49.690;6.472;2023-07-09T14:27:34;9.73;;;3.83;;
15363;SDS011;7781;49.690;6.472;2023-07-09T14:30:08;9.00;;;4.10;;
15363;SDS011;7781;49.690;6.472;2023-07-09T14:32:42;7.43;;;4.13;;
15363;SDS011;7781;49.690;6.472;2023-07-09T14:35:13;9.60;;;4.30;;
15363;SDS011;7781;49.690;6.472;2023-07-09T14:37:45;7.23;;;3.50;;
15363;SDS011;7781;49.690;6.472;2023-07-09T14:40:15;7.53;;;4.00;;
15363;SDS011;7781;49.690;6.472;2023-07-09T14:42:46;6.80;;;4.30;;
15363;SDS011;7781;49.690;6.472;2023-07-09T14:45:18;6.37;;;3.40;;
15363;SDS011;7781;49.690;6.472;2023-07-09T14:47:50;6.90;;;3.33;;
15363;SDS011;7781;49.690;6.472;2023-07-09T14:50:21;8.27;;;3.50;;
15363;SDS011;7781;49.690;6.472;2023-07-09T14:52:52;14.13;;;3.80;;
15363;SDS011;7781;49.690;6.472;2023-07-09T14:55:21;7.53;;;3.50;;
15363;SDS011;7781;49.690;6.472;2023-07-09T14:57:54;6.17;;;3.60;;
15363;SDS011;7781;49.690;6.472;2023-07-09T15:00:25;7.10;;;3.50;;
15363;SDS011;7781;49.690;6.472;2023-07-09T15:02:54;5.23;;;3.23;;
15363;SDS011;7781;49.690;6.472;2023-07-09T15:05:24;7.77;;;3.50;;
15363;SDS011;7781;49.690;6.472;2023-07-09T15:07:55;6.50;;;3.80;;
15363;SDS011;7781;49.690;6.472;2023-07-09T15:10:24;7.53;;;3.63;;
15363;SDS011;7781;49.690;6.472;2023-07-09T15:12:55;5.60;;;3.57;;
15363;SDS011;7781;49.690;6.472;2023-07-09T15:15:24;7.60;;;3.50;;
15363;SDS011;7781;49.690;6.472;2023-07-09T15:17:55;8.70;;;3.60;;
15363;SDS011;7781;49.690;6.472;2023-07-09T15:20:25;7.00;;;3.80;;
15363;SDS011;7781;49.690;6.472;2023-07-09T15:22:57;6.53;;;3.83;;
15363;SDS011;7781;49.690;6.472;2023-07-09T15:25:28;6.60;;;3.40;;
15363;SDS011;7781;49.690;6.472;2023-07-09T15:27:59;3.57;;;3.27;;
15363;SDS011;7781;49.690;6.472;2023-07-09T15:30:28;4.17;;;2.83;;